Terminal Aerodrome Forecast
Issued by NWS

Home | Current Version | Previous Version | Text Only | Print | Product List | Glossary On
Versions: 1 2 3 4 5 6 7 8 9 10 11 12 13 14 15 16 17 18 19
000
FTUS43 KGRB 240700 AAA
TAFATW
TAF AMD
KATW 240718Z 2407/2506 26004KT 4SM BR OVC004
     FM241400 24003KT 5SM BR BKN008
     FM241800 23005KT P6SM SCT015 BKN025
     FM242100 22004KT P6SM SCT025
     FM250300 20004KT 5SM BR SCT090=

USA.gov is the U.S. government's official web portal to all federal, state and local government web resources and services.